createdAt,value
2023-04-20T00:01:03.480Z,15.60
2023-04-20T00:03:32.311Z,15.30
2023-04-20T00:05:56.015Z,14.30
2023-04-20T00:08:19.853Z,13.70
2023-04-20T00:10:44.432Z,20.20
2023-04-20T00:13:11.348Z,16.40
2023-04-20T00:15:44.487Z,17.10
2023-04-20T00:18:27.300Z,16.20
2023-04-20T00:21:11.042Z,17.40
2023-04-20T00:23:38.190Z,21.10
2023-04-20T00:26:21.959Z,13.60
2023-04-20T00:28:56.790Z,16.00
2023-04-20T00:31:23.248Z,15.10
2023-04-20T00:34:07.349Z,20.60
2023-04-20T00:36:51.302Z,15.10
2023-04-20T00:42:05.869Z,14.60
2023-04-20T00:44:33.319Z,16.10
2023-04-20T00:47:17.273Z,17.00
2023-04-20T00:49:41.128Z,15.30
2023-04-20T00:52:05.914Z,14.00
2023-04-20T00:54:32.777Z,15.50
2023-04-20T00:57:23.299Z,12.80
2023-04-20T00:59:56.928Z,15.80
2023-04-20T01:02:41.160Z,14.20
2023-04-20T01:05:08.717Z,18.30
2023-04-20T01:07:32.303Z,16.60
2023-04-20T01:09:58.430Z,13.90
2023-04-20T01:12:21.803Z,15.50
2023-04-20T01:14:48.391Z,13.30
2023-04-20T01:17:14.403Z,15.70
2023-04-20T01:19:44.090Z,13.70
2023-04-20T01:22:07.672Z,13.30
2023-04-20T01:24:34.141Z,13.70
2023-04-20T01:26:57.890Z,16.50
2023-04-20T01:29:21.530Z,18.00
2023-04-20T01:31:47.694Z,12.50
2023-04-20T01:34:11.300Z,18.30
2023-04-20T01:36:55.887Z,15.50
2023-04-20T01:39:22.064Z,13.60
2023-04-20T01:41:47.888Z,13.90
2023-04-20T01:44:14.580Z,16.30
2023-04-20T01:46:39.146Z,16.70
2023-04-20T01:49:16.221Z,16.70
2023-04-20T01:51:40.069Z,13.40
2023-04-20T01:54:03.839Z,16.90
2023-04-20T01:56:28.091Z,14.80
2023-04-20T01:58:54.722Z,16.40
2023-04-20T02:01:29.559Z,14.50
2023-04-20T02:03:53.455Z,13.70
2023-04-20T02:08:53.062Z,16.90
2023-04-20T02:11:23.777Z,16.60
2023-04-20T02:14:07.924Z,13.20
2023-04-20T02:16:36.020Z,15.00
2023-04-20T02:19:02.858Z,16.70
2023-04-20T02:21:27.476Z,18.10
2023-04-20T02:23:51.111Z,15.20
2023-04-20T02:26:16.606Z,18.90
2023-04-20T02:28:49.518Z,20.00
2023-04-20T02:31:13.433Z,16.70
2023-04-20T02:33:41.557Z,15.20
2023-04-20T02:36:06.501Z,19.20
2023-04-20T02:38:29.862Z,14.50
2023-04-20T02:40:53.338Z,17.00
2023-04-20T02:43:17.213Z,13.50
2023-04-20T02:45:40.814Z,16.50
2023-04-20T02:48:05.764Z,17.30
2023-04-20T02:50:49.794Z,16.60
2023-04-20T02:53:16.726Z,17.00
2023-04-20T02:55:49.858Z,15.20
2023-04-20T02:58:26.059Z,18.60
2023-04-20T03:01:21.776Z,15.20
2023-04-20T03:03:47.378Z,15.00
2023-04-20T03:06:11.463Z,15.80
2023-04-20T03:08:48.652Z,18.30
2023-04-20T03:11:41.335Z,18.00
2023-04-20T03:14:10.094Z,20.90
2023-04-20T03:16:33.899Z,14.00
2023-04-20T03:18:57.532Z,18.40
2023-04-20T03:21:21.181Z,15.40
2023-04-20T03:23:44.669Z,15.40
2023-04-20T03:29:03.197Z,15.20
2023-04-20T03:31:29.775Z,16.50
2023-04-20T03:33:56.024Z,17.90
2023-04-20T03:36:40.111Z,19.00
2023-04-20T03:39:06.769Z,16.90
2023-04-20T03:41:50.739Z,17.30
2023-04-20T03:44:24.357Z,15.30
2023-04-20T03:46:50.413Z,16.00
2023-04-20T03:49:34.999Z,18.20
2023-04-20T03:52:18.883Z,17.00
2023-04-20T03:54:52.036Z,17.80
2023-04-20T03:57:16.660Z,14.20
2023-04-20T04:00:00.997Z,17.20
2023-04-20T04:02:28.429Z,16.70
2023-04-20T04:04:55.576Z,16.80
2023-04-20T04:07:23.777Z,16.70
2023-04-20T04:09:50.518Z,17.80
2023-04-20T04:12:31.250Z,17.20
2023-04-20T04:17:55.042Z,16.80
2023-04-20T04:20:22.245Z,19.50
2023-04-20T04:22:46.398Z,16.10
2023-04-20T04:25:24.498Z,16.10
2023-04-20T04:27:48.179Z,19.70
2023-04-20T04:30:14.215Z,15.90
2023-04-20T04:32:41.282Z,16.60
2023-04-20T04:35:06.286Z,19.00
2023-04-20T04:37:30.335Z,20.30
2023-04-20T04:40:14.690Z,18.60
2023-04-20T04:42:38.820Z,21.50
2023-04-20T04:45:04.039Z,17.60
2023-04-20T04:47:29.935Z,24.60
2023-04-20T04:49:55.833Z,17.40
2023-04-20T04:52:19.511Z,15.00
2023-04-20T04:54:43.079Z,16.00
2023-04-20T04:57:06.616Z,16.10
2023-04-20T04:59:30.081Z,16.80
2023-04-20T05:01:56.253Z,19.80
2023-04-20T05:04:20.052Z,21.10
2023-04-20T05:07:04.081Z,17.40
2023-04-20T05:09:32.659Z,16.10
2023-04-20T05:11:56.891Z,18.30
2023-04-20T05:14:20.550Z,18.00
2023-04-20T05:16:46.528Z,18.10
2023-04-20T05:19:12.226Z,17.00
2023-04-20T05:21:37.536Z,16.40
2023-04-20T05:24:03.844Z,16.30
2023-04-20T05:26:27.460Z,17.80
2023-04-20T05:28:53.707Z,20.90
2023-04-20T05:31:26.065Z,21.40
2023-04-20T05:33:49.873Z,19.20
2023-04-20T05:36:22.244Z,17.00
2023-04-20T05:38:59.142Z,18.20
2023-04-20T05:41:26.830Z,17.10
2023-04-20T05:43:50.456Z,15.30
2023-04-20T05:48:39.546Z,16.10
2023-04-20T05:51:03.055Z,17.10
2023-04-20T05:53:26.660Z,18.80
2023-04-20T05:55:50.184Z,13.20
2023-04-20T05:58:13.628Z,13.40
2023-04-20T06:00:37.165Z,12.80
2023-04-20T06:03:01.125Z,15.20
2023-04-20T06:05:24.817Z,18.40
2023-04-20T06:07:48.691Z,17.70
2023-04-20T06:10:12.938Z,17.10
2023-04-20T06:12:36.443Z,16.10
2023-04-20T06:14:59.844Z,12.20
2023-04-20T06:17:23.526Z,14.60
2023-04-20T06:19:47.222Z,15.60
2023-04-20T06:22:16.180Z,16.70
2023-04-20T06:24:41.654Z,13.70
2023-04-20T06:27:05.763Z,15.60
2023-04-20T06:29:29.206Z,18.10
2023-04-20T06:31:52.722Z,14.20
2023-04-20T06:34:16.110Z,11.90
2023-04-20T06:36:43.180Z,10.50
2023-04-20T06:39:07.090Z,13.70
2023-04-20T06:41:30.497Z,13.40
2023-04-20T06:44:02.156Z,14.50
2023-04-20T06:46:25.763Z,14.20
2023-04-20T06:48:49.306Z,14.10
2023-04-20T06:51:13.792Z,16.80
2023-04-20T06:53:37.608Z,12.60
2023-04-20T06:56:01.417Z,13.30
2023-04-20T06:58:25.030Z,12.60
2023-04-20T07:00:48.975Z,18.70
2023-04-20T07:03:12.556Z,13.80
2023-04-20T07:05:37.500Z,13.80
2023-04-20T07:08:01.814Z,16.10
2023-04-20T07:10:25.632Z,12.30
2023-04-20T07:12:48.960Z,15.50
2023-04-20T07:15:13.262Z,13.60
2023-04-20T07:17:36.642Z,13.30
2023-04-20T07:20:06.644Z,11.00
2023-04-20T07:22:30.297Z,17.70
2023-04-20T07:24:53.605Z,15.40
2023-04-20T07:27:17.524Z,20.00
2023-04-20T07:29:40.991Z,12.00
2023-04-20T07:32:05.091Z,11.60
2023-04-20T07:34:28.602Z,17.30
2023-04-20T07:36:52.245Z,12.00
2023-04-20T07:39:16.112Z,13.70
2023-04-20T07:41:39.841Z,14.40
2023-04-20T07:44:05.673Z,18.10
2023-04-20T07:46:29.073Z,11.80
2023-04-20T07:48:52.547Z,11.30
2023-04-20T07:51:16.156Z,17.60
2023-04-20T07:53:39.616Z,12.60
2023-04-20T07:56:03.099Z,11.40
2023-04-20T07:58:26.612Z,19.10
2023-04-20T08:00:49.941Z,15.40
2023-04-20T08:03:13.514Z,17.80
2023-04-20T08:05:40.243Z,17.30
2023-04-20T08:08:03.842Z,18.70
2023-04-20T08:10:27.181Z,19.70
2023-04-20T08:12:52.928Z,21.50
2023-04-20T08:15:16.490Z,11.50
2023-04-20T08:17:39.996Z,21.20
2023-04-20T08:20:05.385Z,22.00
2023-04-20T08:22:29.645Z,18.20
2023-04-20T08:24:53.053Z,17.50
2023-04-20T08:27:16.677Z,13.60
2023-04-20T08:29:40.514Z,33.70
2023-04-20T08:32:08.284Z,26.90
2023-04-20T08:34:32.048Z,19.10
2023-04-20T08:36:55.455Z,19.40
2023-04-20T08:39:23.446Z,21.80
2023-04-20T08:41:47.696Z,19.80
2023-04-20T08:44:11.266Z,12.40
2023-04-20T08:46:35.471Z,18.20
2023-04-20T08:49:01.526Z,12.10
2023-04-20T08:51:25.072Z,12.60
2023-04-20T08:53:48.410Z,19.00
2023-04-20T08:56:12.015Z,16.60
2023-04-20T08:58:37.863Z,12.40
2023-04-20T09:01:01.650Z,16.40
2023-04-20T09:03:33.885Z,10.30
2023-04-20T09:05:57.454Z,17.20
2023-04-20T09:08:20.906Z,16.50
2023-04-20T09:10:45.139Z,8.50
2023-04-20T09:13:08.900Z,19.50
2023-04-20T09:15:32.762Z,18.70
2023-04-20T09:17:57.314Z,13.70
2023-04-20T09:20:29.329Z,11.90
2023-04-20T09:22:53.765Z,12.50
2023-04-20T09:25:18.394Z,18.70
2023-04-20T09:27:42.022Z,17.30
2023-04-20T09:30:08.678Z,15.30
2023-04-20T09:32:33.080Z,16.10
2023-04-20T09:34:56.777Z,14.30
2023-04-20T09:37:20.234Z,11.60
2023-04-20T09:39:45.142Z,16.90
2023-04-20T09:42:12.987Z,9.80
2023-04-20T09:44:38.708Z,17.70
2023-04-20T09:47:04.123Z,17.20
2023-04-20T09:49:27.799Z,14.60
2023-04-20T09:51:51.897Z,11.40
2023-04-20T09:54:16.559Z,19.30
2023-04-20T09:56:41.091Z,11.10
2023-04-20T09:59:05.016Z,10.60
2023-04-20T10:01:33.012Z,15.80
2023-04-20T10:03:58.684Z,12.40
2023-04-20T10:06:24.151Z,11.10
2023-04-20T10:08:49.863Z,12.50
2023-04-20T10:11:25.280Z,13.00
2023-04-20T10:13:49.600Z,9.30
2023-04-20T10:16:19.569Z,14.50
2023-04-20T10:18:43.169Z,18.40
2023-04-20T10:21:08.899Z,11.80
2023-04-20T10:23:32.639Z,13.90
2023-04-20T10:25:57.561Z,11.90
2023-04-20T10:28:21.302Z,13.00
2023-04-20T10:30:52.972Z,10.90
2023-04-20T10:33:17.551Z,12.50
2023-04-20T10:35:47.022Z,7.70
2023-04-20T10:38:11.607Z,7.40
2023-04-20T10:40:35.721Z,10.50
2023-04-20T10:43:01.444Z,8.60
2023-04-20T10:45:35.848Z,11.60
2023-04-20T10:48:06.017Z,6.10
2023-04-20T10:50:29.502Z,8.40
2023-04-20T10:52:53.146Z,9.60
2023-04-20T10:55:21.835Z,11.00
2023-04-20T10:57:46.184Z,8.40
2023-04-20T11:00:18.426Z,9.40
2023-04-20T11:02:51.006Z,10.30
2023-04-20T11:05:15.776Z,11.40
2023-04-20T11:07:54.570Z,7.40
2023-04-20T11:10:18.712Z,8.90
2023-04-20T11:12:42.155Z,4.70
2023-04-20T11:15:09.353Z,11.40
2023-04-20T11:17:33.999Z,9.80
2023-04-20T11:20:10.282Z,9.30
2023-04-20T11:22:34.127Z,9.20
2023-04-20T11:25:05.226Z,7.80
2023-04-20T11:27:28.676Z,7.70
2023-04-20T11:29:59.214Z,12.40
2023-04-20T11:32:23.211Z,7.20
2023-04-20T11:34:50.265Z,6.90
2023-04-20T11:37:17.281Z,11.80
2023-04-20T11:39:41.263Z,9.70
2023-04-20T11:42:06.019Z,11.10
2023-04-20T11:44:29.988Z,13.60
2023-04-20T11:46:56.570Z,8.70
2023-04-20T11:49:21.302Z,13.00
2023-04-20T11:51:45.788Z,7.30
2023-04-20T11:54:09.446Z,13.30
2023-04-20T11:56:33.037Z,8.00
2023-04-20T11:58:57.426Z,7.10
2023-04-20T12:01:20.934Z,12.70
2023-04-20T12:03:47.101Z,8.20
2023-04-20T12:06:12.218Z,12.50
2023-04-20T12:08:36.517Z,7.00
2023-04-20T12:11:03.032Z,9.30
2023-04-20T12:13:26.828Z,7.50
2023-04-20T12:15:50.373Z,5.00
2023-04-20T12:18:14.032Z,10.20
2023-04-20T12:20:37.696Z,6.30
2023-04-20T12:23:01.853Z,5.60
2023-04-20T12:25:25.258Z,7.10
2023-04-20T12:27:50.006Z,8.60
2023-04-20T12:30:17.467Z,9.00
2023-04-20T12:32:41.034Z,8.90
2023-04-20T12:35:05.612Z,6.30
2023-04-20T12:37:29.064Z,7.50
2023-04-20T12:39:52.737Z,6.20
2023-04-20T12:42:16.430Z,6.50
2023-04-20T12:44:40.265Z,6.80
2023-04-20T12:47:03.771Z,5.20
2023-04-20T12:49:27.825Z,6.60
2023-04-20T12:51:51.350Z,5.30
2023-04-20T12:54:14.782Z,9.10
2023-04-20T12:56:38.409Z,5.60
2023-04-20T12:59:02.338Z,11.30
2023-04-20T13:01:26.185Z,8.40
2023-04-20T13:03:51.747Z,8.20
2023-04-20T13:06:18.252Z,12.40
2023-04-20T13:08:41.884Z,5.20
2023-04-20T13:11:06.300Z,8.10
2023-04-20T13:13:29.730Z,10.30
2023-04-20T13:15:54.668Z,10.90
2023-04-20T13:18:19.543Z,7.10
2023-04-20T13:20:42.901Z,4.40
2023-04-20T13:23:06.443Z,5.50
2023-04-20T13:25:32.849Z,11.10
2023-04-20T13:27:56.607Z,11.70
2023-04-20T13:30:21.838Z,10.10
2023-04-20T13:32:46.649Z,9.70
2023-04-20T13:35:11.772Z,7.80
2023-04-20T13:37:36.240Z,6.90
2023-04-20T13:40:00.977Z,8.60
2023-04-20T13:42:24.838Z,7.30
2023-04-20T13:44:48.368Z,10.10
2023-04-20T13:47:11.960Z,9.70
2023-04-20T13:49:35.430Z,6.90
2023-04-20T13:51:58.894Z,11.90
2023-04-20T13:54:22.836Z,9.40
2023-04-20T13:56:46.380Z,6.40
2023-04-20T13:59:09.795Z,6.70
2023-04-20T14:01:33.612Z,10.50
2023-04-20T14:03:57.219Z,6.40
2023-04-20T14:06:21.408Z,11.60
2023-04-20T14:08:45.400Z,9.50
2023-04-20T14:11:08.926Z,6.00
2023-04-20T14:13:32.484Z,9.10
2023-04-20T14:15:56.840Z,8.10
2023-04-20T14:18:20.349Z,10.00
2023-04-20T14:20:43.805Z,9.30
2023-04-20T14:23:09.428Z,12.30
2023-04-20T14:25:33.267Z,5.50
2023-04-20T14:27:56.669Z,10.20
2023-04-20T14:30:20.450Z,8.80
2023-04-20T14:32:54.048Z,13.60
2023-04-20T14:35:17.758Z,6.10
2023-04-20T14:37:42.850Z,7.10
2023-04-20T14:40:08.596Z,6.90
2023-04-20T14:42:33.863Z,6.10
2023-04-20T14:44:57.529Z,8.00
2023-04-20T14:47:21.991Z,8.80
2023-04-20T14:49:45.424Z,10.30
2023-04-20T14:52:09.039Z,5.60
2023-04-20T14:54:32.454Z,8.70
2023-04-20T14:56:58.710Z,7.20
2023-04-20T14:59:23.974Z,20.30
2023-04-20T15:02:01.272Z,9.20
2023-04-20T15:04:27.082Z,8.90
2023-04-20T15:06:50.856Z,6.80
2023-04-20T15:09:14.772Z,5.70
2023-04-20T15:11:38.277Z,5.80
2023-04-20T15:14:02.117Z,7.60
2023-04-20T15:16:25.787Z,8.70
2023-04-20T15:18:52.199Z,10.60
2023-04-20T15:21:15.638Z,6.00
2023-04-20T15:23:39.023Z,8.40
2023-04-20T15:26:02.999Z,7.20
2023-04-20T15:28:26.489Z,8.40
2023-04-20T15:30:49.901Z,6.30
2023-04-20T15:33:13.557Z,10.50
2023-04-20T15:35:36.966Z,11.50
2023-04-20T15:38:00.732Z,10.30
2023-04-20T15:40:26.559Z,10.20
2023-04-20T15:42:55.023Z,5.80
2023-04-20T15:45:19.464Z,12.10
2023-04-20T15:47:43.195Z,8.50
2023-04-20T15:50:08.474Z,14.30
2023-04-20T15:52:32.266Z,14.50
2023-04-20T15:54:56.103Z,13.30
2023-04-20T15:57:19.504Z,7.80
2023-04-20T15:59:43.098Z,11.50
2023-04-20T16:02:16.081Z,10.30
2023-04-20T16:04:39.985Z,9.90
2023-04-20T16:07:03.780Z,10.30
2023-04-20T16:09:27.471Z,9.70
2023-04-20T16:11:50.924Z,8.90
2023-04-20T16:14:14.231Z,13.30
2023-04-20T16:16:37.995Z,7.80
2023-04-20T16:19:01.419Z,7.70
2023-04-20T16:21:25.204Z,9.90
2023-04-20T16:23:53.037Z,7.70
2023-04-20T16:26:16.928Z,9.90
2023-04-20T16:28:40.932Z,13.80
2023-04-20T16:31:05.216Z,9.60
2023-04-20T16:33:31.456Z,8.40
2023-04-20T16:35:54.908Z,8.80
2023-04-20T16:38:26.130Z,12.20
2023-04-20T16:40:50.264Z,10.30
2023-04-20T16:43:13.808Z,9.40
2023-04-20T16:45:45.121Z,10.20
2023-04-20T16:48:29.089Z,11.50
2023-04-20T16:50:53.249Z,6.90
2023-04-20T16:53:16.922Z,8.00
2023-04-20T16:55:40.394Z,7.90
2023-04-20T16:58:06.494Z,9.10
2023-04-20T17:00:31.374Z,9.90
2023-04-20T17:03:00.761Z,8.00
2023-04-20T17:05:25.287Z,9.90
2023-04-20T17:07:48.789Z,8.90
2023-04-20T17:10:12.712Z,9.10
2023-04-20T17:12:36.394Z,11.60
2023-04-20T17:15:00.373Z,10.10
2023-04-20T17:17:25.418Z,9.80
2023-04-20T17:19:49.466Z,11.70
2023-04-20T17:22:16.099Z,13.90
2023-04-20T17:24:48.260Z,13.30
2023-04-20T17:27:22.456Z,12.20
2023-04-20T17:29:47.069Z,16.60
2023-04-20T17:32:12.929Z,10.70
2023-04-20T17:34:37.012Z,10.50
2023-04-20T17:37:00.906Z,14.20
2023-04-20T17:39:25.290Z,14.70
2023-04-20T17:41:48.873Z,13.20
2023-04-20T17:44:12.672Z,14.90
2023-04-20T17:46:36.214Z,17.20
2023-04-20T17:49:00.274Z,14.50
2023-04-20T17:51:23.872Z,13.00
2023-04-20T17:53:47.312Z,10.20
2023-04-20T17:56:11.256Z,14.10
2023-04-20T17:58:38.055Z,14.40
2023-04-20T18:01:10.051Z,13.60
2023-04-20T18:03:34.037Z,13.50
2023-04-20T18:05:57.501Z,12.90
2023-04-20T18:08:23.603Z,10.50
2023-04-20T18:10:56.776Z,15.50
2023-04-20T18:13:40.823Z,14.20
2023-04-20T18:16:23.474Z,18.10
2023-04-20T18:18:47.212Z,12.10
2023-04-20T18:21:13.480Z,14.60
2023-04-20T18:23:48.923Z,16.90
2023-04-20T18:26:17.209Z,15.90
2023-04-20T18:28:43.588Z,15.00
2023-04-20T18:31:07.311Z,20.70
2023-04-20T18:33:30.954Z,19.50
2023-04-20T18:35:57.466Z,20.30
2023-04-20T18:38:21.150Z,17.50
2023-04-20T18:40:45.700Z,18.30
2023-04-20T18:43:09.209Z,14.60
2023-04-20T18:45:35.881Z,16.60
2023-04-20T18:48:19.438Z,15.70
2023-04-20T18:50:43.772Z,19.80
2023-04-20T18:53:08.136Z,17.90
2023-04-20T18:55:39.830Z,18.80
2023-04-20T18:58:12.570Z,20.90
2023-04-20T19:00:39.224Z,17.10
2023-04-20T19:03:26.809Z,16.00
2023-04-20T19:06:10.986Z,18.10
2023-04-20T19:08:55.393Z,18.70
2023-04-20T19:11:39.490Z,20.10
2023-04-20T19:14:23.767Z,15.10
2023-04-20T19:17:08.219Z,17.30
2023-04-20T19:19:41.921Z,17.60
2023-04-20T19:22:05.516Z,17.20
2023-04-20T19:24:29.423Z,15.80
2023-04-20T19:26:53.620Z,24.80
2023-04-20T19:29:36.427Z,15.80
2023-04-20T19:32:00.229Z,17.90
2023-04-20T19:34:44.150Z,17.80
2023-04-20T19:37:07.904Z,16.70
2023-04-20T19:39:38.777Z,14.30
2023-04-20T19:42:02.310Z,17.90
2023-04-20T19:44:28.653Z,19.00
2023-04-20T19:47:12.617Z,12.00
2023-04-20T19:49:36.862Z,19.20
2023-04-20T19:52:00.542Z,18.50
2023-04-20T19:54:24.170Z,16.50
2023-04-20T19:56:58.641Z,18.70
2023-04-20T19:59:42.697Z,14.40
2023-04-20T20:02:09.444Z,19.20
2023-04-20T20:04:36.766Z,14.80
2023-04-20T20:07:21.137Z,18.70
2023-04-20T20:09:47.887Z,17.30
2023-04-20T20:12:32.228Z,14.30
2023-04-20T20:15:05.752Z,23.30
2023-04-20T20:17:54.959Z,23.70
2023-04-20T20:20:39.560Z,17.70
2023-04-20T20:23:04.194Z,19.80
2023-04-20T20:25:30.679Z,21.30
2023-04-20T20:27:54.159Z,19.30
2023-04-20T20:30:18.130Z,20.90
2023-04-20T20:32:42.138Z,18.70
2023-04-20T20:35:10.877Z,22.80
2023-04-20T20:37:35.540Z,17.80
2023-04-20T20:39:59.479Z,23.30
2023-04-20T20:42:22.879Z,18.20
2023-04-20T20:45:11.801Z,21.70
2023-04-20T20:47:55.797Z,18.70
2023-04-20T20:50:32.187Z,18.00
2023-04-20T20:53:16.956Z,17.90
2023-04-20T20:55:43.713Z,18.70
2023-04-20T20:58:17.322Z,21.60
2023-04-20T21:01:01.915Z,22.70
2023-04-20T21:03:46.520Z,15.40
2023-04-20T21:06:32.160Z,18.40
2023-04-20T21:09:17.089Z,19.20
2023-04-20T21:11:56.225Z,20.00
2023-04-20T21:14:29.083Z,19.10
2023-04-20T21:17:13.490Z,16.90
2023-04-20T21:19:57.500Z,18.40
2023-04-20T21:22:42.178Z,19.20
2023-04-20T21:25:07.804Z,17.30
2023-04-20T21:27:52.165Z,15.10
2023-04-20T21:30:35.958Z,19.30
2023-04-20T21:33:08.729Z,14.90
2023-04-20T21:35:52.576Z,18.40
2023-04-20T21:38:36.927Z,16.80
2023-04-20T21:41:00.503Z,14.80
2023-04-20T21:43:24.281Z,16.90
2023-04-20T21:45:51.039Z,15.60
2023-04-20T21:48:15.060Z,17.50
2023-04-20T21:50:38.852Z,15.10
2023-04-20T21:53:02.974Z,15.00
2023-04-20T21:55:26.502Z,14.70
2023-04-20T21:58:10.461Z,12.70
2023-04-20T22:00:54.395Z,15.90
2023-04-20T22:03:38.893Z,13.90
2023-04-20T22:06:23.064Z,16.60
2023-04-20T22:09:07.453Z,19.60
2023-04-20T22:11:35.912Z,19.10
2023-04-20T22:16:37.186Z,13.20
2023-04-20T22:19:21.893Z,17.40
2023-04-20T22:22:05.827Z,16.90
2023-04-20T22:24:39.952Z,14.40
2023-04-20T22:27:24.054Z,18.80
2023-04-20T22:29:57.057Z,14.30
2023-04-20T22:32:24.049Z,13.10
2023-04-20T22:35:09.621Z,16.10
2023-04-20T22:37:33.326Z,16.90
2023-04-20T22:40:17.354Z,18.90
2023-04-20T22:43:01.117Z,15.50
2023-04-20T22:45:45.452Z,17.40
2023-04-20T22:48:29.652Z,16.50
2023-04-20T22:51:16.748Z,19.20
2023-04-20T22:54:01.869Z,19.00
2023-04-20T22:56:45.879Z,13.20
2023-04-20T22:59:29.618Z,17.80
2023-04-20T23:02:14.280Z,15.30
2023-04-20T23:04:56.996Z,15.70
2023-04-20T23:07:41.224Z,18.10
2023-04-20T23:10:15.997Z,18.10
2023-04-20T23:12:59.939Z,17.10
2023-04-20T23:15:43.896Z,14.80
2023-04-20T23:18:18.608Z,15.80
2023-04-20T23:21:02.309Z,17.10
2023-04-20T23:23:40.421Z,13.80
2023-04-20T23:26:24.914Z,17.80
2023-04-20T23:29:08.972Z,18.30
2023-04-20T23:31:52.744Z,17.30
2023-04-20T23:34:37.327Z,15.00
2023-04-20T23:37:21.131Z,16.70
2023-04-20T23:39:55.479Z,13.50
2023-04-20T23:42:30.415Z,20.10
2023-04-20T23:45:14.470Z,19.30
2023-04-20T23:47:40.591Z,17.30
2023-04-20T23:50:13.693Z,14.20
2023-04-20T23:52:57.667Z,20.70
2023-04-20T23:55:41.564Z,17.50
2023-04-20T23:58:11.273Z,17.70
